createdAt,value
2023-04-08T00:01:01.452Z,6.70
2023-04-08T00:03:29.302Z,6.60
2023-04-08T00:05:57.141Z,6.60
2023-04-08T00:08:24.884Z,6.70
2023-04-08T00:10:52.623Z,6.70
2023-04-08T00:13:21.699Z,6.60
2023-04-08T00:15:49.458Z,6.60
2023-04-08T00:18:17.980Z,6.60
2023-04-08T00:20:45.736Z,6.60
2023-04-08T00:23:13.513Z,6.50
2023-04-08T00:25:41.498Z,6.60
2023-04-08T00:28:09.243Z,6.60
2023-04-08T00:30:38.443Z,6.50
2023-04-08T00:33:06.270Z,6.50
2023-04-08T00:35:34.148Z,6.70
2023-04-08T00:38:02.081Z,6.70
2023-04-08T00:40:29.934Z,6.80
2023-04-08T00:42:58.172Z,6.80
2023-04-08T00:45:26.676Z,6.80
2023-04-08T00:47:55.798Z,6.70
2023-04-08T00:50:23.566Z,6.70
2023-04-08T00:52:51.343Z,6.80
2023-04-08T00:55:19.101Z,6.80
2023-04-08T00:57:46.930Z,6.80
2023-04-08T01:00:16.022Z,6.60
2023-04-08T01:02:46.786Z,6.70
2023-04-08T01:05:16.927Z,6.50
2023-04-08T01:07:47.802Z,6.60
2023-04-08T01:10:18.182Z,6.50
2023-04-08T01:12:49.837Z,6.50
2023-04-08T01:15:17.609Z,6.50
2023-04-08T01:17:45.434Z,6.60
2023-04-08T01:20:13.204Z,6.70
2023-04-08T01:22:47.901Z,6.50
2023-04-08T01:25:18.653Z,6.60
2023-04-08T01:27:48.091Z,6.60
2023-04-08T01:30:17.295Z,6.60
2023-04-08T01:32:45.301Z,6.60
2023-04-08T01:35:13.090Z,6.50
2023-04-08T01:37:40.844Z,6.50
2023-04-08T01:40:09.562Z,6.50
2023-04-08T01:42:37.312Z,6.50
2023-04-08T01:45:07.574Z,6.50
2023-04-08T01:47:35.498Z,6.50
2023-04-08T01:50:03.351Z,6.50
2023-04-08T01:52:31.311Z,6.50
2023-04-08T01:54:59.092Z,6.50
2023-04-08T01:57:29.175Z,6.30
2023-04-08T01:59:58.181Z,6.30
2023-04-08T02:02:27.556Z,6.20
2023-04-08T02:04:55.433Z,6.30
2023-04-08T02:07:23.230Z,6.40
2023-04-08T02:09:51.411Z,6.30
2023-04-08T02:12:19.302Z,6.20
2023-04-08T02:14:47.156Z,6.30
2023-04-08T02:17:18.047Z,6.40
2023-04-08T02:19:48.976Z,6.50
2023-04-08T02:22:20.545Z,6.50
2023-04-08T02:24:48.314Z,6.50
2023-04-08T02:27:16.108Z,6.50
2023-04-08T02:29:43.888Z,6.50
2023-04-08T02:32:11.801Z,6.50
2023-04-08T02:34:40.336Z,6.50
2023-04-08T02:37:10.137Z,6.40
2023-04-08T02:39:37.908Z,6.30
2023-04-08T02:42:05.738Z,6.40
2023-04-08T02:44:33.605Z,6.30
2023-04-08T02:47:01.415Z,6.30
2023-04-08T02:49:29.174Z,6.30
2023-04-08T02:51:56.992Z,6.30
2023-04-08T02:54:26.104Z,6.20
2023-04-08T02:56:53.893Z,6.20
2023-04-08T02:59:21.654Z,6.20
2023-04-08T03:01:49.492Z,6.20
2023-04-08T03:04:17.349Z,6.30
2023-04-08T03:06:45.142Z,6.20
2023-04-08T03:09:12.920Z,6.30
2023-04-08T03:11:42.057Z,6.20
2023-04-08T03:14:09.816Z,6.20
2023-04-08T03:16:37.654Z,6.30
2023-04-08T03:19:05.530Z,6.40
2023-04-08T03:21:33.315Z,6.40
2023-04-08T03:24:01.082Z,6.50
2023-04-08T03:26:29.155Z,6.40
2023-04-08T03:28:58.358Z,6.30
2023-04-08T03:31:26.673Z,6.20
2023-04-08T03:33:54.461Z,6.30
2023-04-08T03:36:22.241Z,6.20
2023-04-08T03:38:50.233Z,6.20
2023-04-08T03:41:18.228Z,6.20
2023-04-08T03:43:46.121Z,6.20
2023-04-08T03:46:15.364Z,6.20
2023-04-08T03:48:43.159Z,6.30
2023-04-08T03:51:10.947Z,6.30
2023-04-08T03:53:38.729Z,6.40
2023-04-08T03:56:07.172Z,6.40
2023-04-08T03:58:34.943Z,6.40
2023-04-08T04:01:02.806Z,6.40
2023-04-08T04:03:32.170Z,6.50
2023-04-08T04:06:00.046Z,6.50
2023-04-08T04:08:27.866Z,6.50
2023-04-08T04:10:55.630Z,6.50
2023-04-08T04:13:23.439Z,6.40
2023-04-08T04:15:51.242Z,6.50
2023-04-08T04:18:19.101Z,7.10
2023-04-08T04:20:48.315Z,6.60
2023-04-08T04:23:16.197Z,6.50
2023-04-08T04:25:44.278Z,6.50
2023-04-08T04:28:12.099Z,6.30
2023-04-08T04:30:39.907Z,6.30
2023-04-08T04:33:07.723Z,6.10
2023-04-08T04:35:35.668Z,6.20
2023-04-08T04:38:08.091Z,6.00
2023-04-08T04:40:35.813Z,6.00
2023-04-08T04:43:03.544Z,6.00
2023-04-08T04:45:31.336Z,5.90
2023-04-08T04:47:59.133Z,6.00
2023-04-08T04:50:26.928Z,6.00
2023-04-08T04:52:54.656Z,6.00
2023-04-08T04:55:24.013Z,5.90
2023-04-08T04:57:51.747Z,5.90
2023-04-08T05:00:19.596Z,5.90
2023-04-08T05:02:47.615Z,6.00
2023-04-08T05:05:15.585Z,5.90
2023-04-08T05:07:43.396Z,5.80
2023-04-08T05:10:11.924Z,5.80
2023-04-08T05:12:41.356Z,5.90
2023-04-08T05:15:09.608Z,5.80
2023-04-08T05:17:37.443Z,5.90
2023-04-08T05:20:06.050Z,6.00
2023-04-08T05:22:34.381Z,6.20
2023-04-08T05:25:02.198Z,6.10
2023-04-08T05:27:29.952Z,6.00
2023-04-08T05:29:58.997Z,6.00
2023-04-08T05:32:27.173Z,6.10
2023-04-08T05:34:54.916Z,6.10
2023-04-08T05:37:22.671Z,6.20
2023-04-08T05:39:50.615Z,6.20
2023-04-08T05:42:18.337Z,6.00
2023-04-08T05:44:46.068Z,6.00
2023-04-08T05:47:16.254Z,6.00
2023-04-08T05:49:44.292Z,6.10
2023-04-08T05:52:12.037Z,6.20
2023-04-08T05:54:39.757Z,6.20
2023-04-08T05:57:10.267Z,6.10
2023-04-08T05:59:38.283Z,6.10
2023-04-08T06:02:06.109Z,6.10
2023-04-08T06:04:35.299Z,6.00
2023-04-08T06:07:04.312Z,6.00
2023-04-08T06:09:32.205Z,6.00
2023-04-08T06:11:59.980Z,5.90
2023-04-08T06:14:27.729Z,6.00
2023-04-08T06:16:57.231Z,6.00
2023-04-08T06:19:25.289Z,6.00
2023-04-08T06:21:58.764Z,6.10
2023-04-08T06:24:27.311Z,6.10
2023-04-08T06:26:55.112Z,6.10
2023-04-08T06:29:23.031Z,6.20
2023-04-08T06:31:51.083Z,6.20
2023-04-08T06:34:19.004Z,6.20
2023-04-08T06:36:46.737Z,6.20
2023-04-08T06:39:16.941Z,6.20
2023-04-08T06:41:44.666Z,6.20
2023-04-08T06:44:12.406Z,6.20
2023-04-08T06:46:40.418Z,6.20
2023-04-08T06:49:08.186Z,6.20
2023-04-08T06:51:36.186Z,6.20
2023-04-08T06:54:03.933Z,6.30
2023-04-08T06:56:33.009Z,6.30
2023-04-08T06:59:01.268Z,6.40
2023-04-08T07:01:29.114Z,6.40
2023-04-08T07:03:57.675Z,6.40
2023-04-08T07:06:25.549Z,6.40
2023-04-08T07:08:53.288Z,6.40
2023-04-08T07:11:21.013Z,6.50
2023-04-08T07:13:50.691Z,6.50
2023-04-08T07:16:18.469Z,6.60
2023-04-08T07:18:47.544Z,6.60
2023-04-08T07:21:15.834Z,6.50
2023-04-08T07:23:43.572Z,6.40
2023-04-08T07:26:11.324Z,6.60
2023-04-08T07:28:39.100Z,6.50
2023-04-08T07:31:16.070Z,6.40
2023-04-08T07:33:44.168Z,6.50
2023-04-08T07:36:12.477Z,6.80
2023-04-08T07:38:40.923Z,6.70
2023-04-08T07:41:08.769Z,6.70
2023-04-08T07:43:37.389Z,6.50
2023-04-08T07:46:05.476Z,6.50
2023-04-08T07:48:35.239Z,6.50
2023-04-08T07:51:10.113Z,6.50
2023-04-08T07:53:39.443Z,6.60
2023-04-08T07:56:12.089Z,6.60
2023-04-08T07:58:40.592Z,6.70
2023-04-08T08:01:16.563Z,6.60
2023-04-08T08:03:46.112Z,6.60
2023-04-08T08:06:14.067Z,6.70
2023-04-08T08:08:41.807Z,6.60
2023-04-08T08:11:09.553Z,6.70
2023-04-08T08:13:37.542Z,6.70
2023-04-08T08:16:08.978Z,6.60
2023-04-08T08:18:37.148Z,6.60
2023-04-08T08:21:06.613Z,6.60
2023-04-08T08:23:34.411Z,6.70
2023-04-08T08:26:02.439Z,6.80
2023-04-08T08:28:30.269Z,6.90
2023-04-08T08:30:58.426Z,6.90
2023-04-08T08:33:26.397Z,6.90
2023-04-08T08:35:54.206Z,6.80
2023-04-08T08:38:23.359Z,6.80
2023-04-08T08:40:55.304Z,6.70
2023-04-08T08:43:23.341Z,6.80
2023-04-08T08:45:51.340Z,6.90
2023-04-08T08:48:19.180Z,6.80
2023-04-08T08:50:46.981Z,6.80
2023-04-08T08:53:14.751Z,6.70
2023-04-08T08:56:13.594Z,6.80
2023-04-08T08:58:31.853Z,6.90
2023-04-08T09:00:59.700Z,7.00
2023-04-08T09:03:28.904Z,6.90
2023-04-08T09:05:57.891Z,7.00
2023-04-08T09:08:26.989Z,7.00
2023-04-08T09:10:56.325Z,7.00
2023-04-08T09:13:24.781Z,6.90
2023-04-08T09:16:02.616Z,6.80
2023-04-08T09:18:30.579Z,6.60
2023-04-08T09:20:58.390Z,6.60
2023-04-08T09:23:26.301Z,6.40
2023-04-08T09:25:54.035Z,6.20
2023-04-08T09:28:23.270Z,5.50
2023-04-08T09:30:51.026Z,5.60
2023-04-08T09:33:18.763Z,5.30
2023-04-08T09:35:46.979Z,5.40
2023-04-08T09:38:14.749Z,5.40
2023-04-08T09:40:42.500Z,5.50
2023-04-08T09:43:10.259Z,5.40
2023-04-08T09:45:41.200Z,5.60
2023-04-08T09:48:12.470Z,5.50
2023-04-08T09:50:43.885Z,5.50
2023-04-08T09:53:15.295Z,5.50
2023-04-08T09:55:43.080Z,5.20
2023-04-08T09:58:16.214Z,5.10
2023-04-08T10:00:50.629Z,5.20
2023-04-08T10:03:24.449Z,5.10
2023-04-08T10:05:53.527Z,5.00
2023-04-08T10:08:21.310Z,5.10
2023-04-08T10:10:49.083Z,5.00
2023-04-08T10:13:16.929Z,4.80
2023-04-08T10:15:47.689Z,4.60
2023-04-08T10:18:36.948Z,4.60
2023-04-08T10:21:05.260Z,4.70
2023-04-08T10:23:54.742Z,4.70
2023-04-08T10:26:33.424Z,4.50
2023-04-08T10:29:44.018Z,4.50
2023-04-08T10:32:31.160Z,4.70
2023-04-08T10:34:58.909Z,4.80
2023-04-08T10:37:26.639Z,4.80
2023-04-08T10:39:55.780Z,5.00
2023-04-08T10:42:29.353Z,4.90
2023-04-08T10:45:01.679Z,4.90
2023-04-08T10:47:30.854Z,5.00
2023-04-08T10:49:58.662Z,5.00
2023-04-08T10:52:27.531Z,5.10
2023-04-08T10:54:55.794Z,5.10
2023-04-08T10:57:26.942Z,5.10
2023-04-08T10:59:54.685Z,5.20
2023-04-08T11:02:22.547Z,5.10
2023-04-08T11:04:51.672Z,5.10
2023-04-08T11:07:21.636Z,5.30
2023-04-08T11:09:50.585Z,5.20
2023-04-08T11:12:19.040Z,5.00
2023-04-08T11:14:48.480Z,4.90
2023-04-08T11:17:17.772Z,5.10
2023-04-08T11:19:45.509Z,5.10
2023-04-08T11:22:15.001Z,5.10
2023-04-08T11:24:42.714Z,5.20
2023-04-08T11:27:10.565Z,5.20
2023-04-08T11:29:38.297Z,5.10
2023-04-08T11:32:06.176Z,5.10
2023-04-08T11:34:33.911Z,4.90
2023-04-08T11:37:01.653Z,4.80
2023-04-08T11:39:30.802Z,4.70
2023-04-08T11:41:58.564Z,4.70
2023-04-08T11:44:32.152Z,4.70
2023-04-08T11:47:01.940Z,4.70
2023-04-08T11:49:29.705Z,4.70
2023-04-08T11:51:59.005Z,4.90
2023-04-08T11:54:32.057Z,4.80
2023-04-08T11:56:59.949Z,4.70
2023-04-08T11:59:29.656Z,4.70
2023-04-08T12:01:57.799Z,4.80
2023-04-08T12:04:25.818Z,4.60
2023-04-08T12:06:53.707Z,4.60
2023-04-08T12:09:21.658Z,4.50
2023-04-08T12:11:50.786Z,4.30
2023-04-08T12:14:18.515Z,4.40
2023-04-08T12:16:46.284Z,4.60
2023-04-08T12:19:14.040Z,4.50
2023-04-08T12:21:41.769Z,4.50
2023-04-08T12:24:09.549Z,4.60
2023-04-08T12:26:37.285Z,4.60
2023-04-08T12:29:06.591Z,4.60
2023-04-08T12:31:34.359Z,4.80
2023-04-08T12:34:02.108Z,4.80
2023-04-08T12:36:29.839Z,4.50
2023-04-08T12:38:57.578Z,4.30
2023-04-08T12:41:25.391Z,4.70
2023-04-08T12:43:53.184Z,4.70
2023-04-08T12:46:22.698Z,4.60
2023-04-08T12:49:02.922Z,4.70
2023-04-08T12:51:32.196Z,4.30
2023-04-08T12:54:01.188Z,4.40
2023-04-08T12:56:28.947Z,4.50
2023-04-08T12:58:57.630Z,4.40
2023-04-08T13:01:26.745Z,4.50
2023-04-08T13:03:54.718Z,4.60
2023-04-08T13:06:22.926Z,4.60
2023-04-08T13:08:50.838Z,4.50
2023-04-08T13:11:18.764Z,4.50
2023-04-08T13:13:47.333Z,4.60
2023-04-08T13:16:15.321Z,4.70
2023-04-08T13:18:44.386Z,4.60
2023-04-08T13:21:12.093Z,4.80
2023-04-08T13:23:39.863Z,4.70
2023-04-08T13:26:07.788Z,4.80
2023-04-08T13:28:53.862Z,4.80
2023-04-08T13:31:23.366Z,4.80
2023-04-08T13:33:54.532Z,4.80
2023-04-08T13:36:24.015Z,4.80
2023-04-08T13:38:52.141Z,4.90
2023-04-08T13:41:21.043Z,4.80
2023-04-08T13:43:48.842Z,4.70
2023-04-08T13:46:16.639Z,4.90
2023-04-08T13:48:44.404Z,4.80
2023-04-08T13:51:13.567Z,4.80
2023-04-08T13:53:41.371Z,4.90
2023-04-08T13:56:09.335Z,5.00
2023-04-08T13:58:37.048Z,4.80
2023-04-08T14:01:05.562Z,4.80
2023-04-08T14:03:33.297Z,4.80
2023-04-08T14:06:01.806Z,4.90
2023-04-08T14:08:31.171Z,5.00
2023-04-08T14:11:00.142Z,5.10
2023-04-08T14:13:27.985Z,5.20
2023-04-08T14:15:58.244Z,5.20
2023-04-08T14:18:26.406Z,5.20
2023-04-08T14:20:54.148Z,5.00
2023-04-08T14:23:22.124Z,4.90
2023-04-08T14:25:51.183Z,4.80
2023-04-08T14:28:18.904Z,5.00
2023-04-08T14:30:47.463Z,5.10
2023-04-08T14:33:15.290Z,5.10
2023-04-08T14:35:43.066Z,5.80
2023-04-08T14:38:10.824Z,5.70
2023-04-08T14:40:38.571Z,5.50
2023-04-08T14:43:07.638Z,5.40
2023-04-08T14:45:35.520Z,5.20
2023-04-08T14:48:03.286Z,5.10
2023-04-08T14:50:31.685Z,5.10
2023-04-08T14:52:59.965Z,5.10
2023-04-08T14:55:28.587Z,5.00
2023-04-08T14:57:56.893Z,5.00
2023-04-08T15:00:26.239Z,5.10
2023-04-08T15:02:54.064Z,5.10
2023-04-08T15:05:21.934Z,5.20
2023-04-08T15:07:49.790Z,5.20
2023-04-08T15:10:33.275Z,5.20
2023-04-08T15:13:22.976Z,5.20
2023-04-08T15:19:48.278Z,5.30
2023-04-08T15:22:16.079Z,5.20
2023-04-08T15:24:48.006Z,5.20
2023-04-08T15:31:02.887Z,5.20
2023-04-08T15:41:06.084Z,5.30
2023-04-08T15:43:33.928Z,5.10
2023-04-08T15:46:01.778Z,5.00
2023-04-08T15:48:29.623Z,5.00
2023-04-08T15:50:57.543Z,4.90
2023-04-08T15:53:25.596Z,4.90
2023-04-08T15:55:53.653Z,4.70
2023-04-08T15:58:22.870Z,4.60
2023-04-08T16:00:52.091Z,4.60
2023-04-08T16:03:20.051Z,4.80
2023-04-08T16:05:47.948Z,4.80
2023-04-08T16:08:16.220Z,4.50
2023-04-08T16:10:44.104Z,4.40
2023-04-08T16:13:12.111Z,4.50
2023-04-08T16:15:41.368Z,4.60
2023-04-08T16:18:09.247Z,4.60
2023-04-08T16:20:38.473Z,4.60
2023-04-08T16:23:06.319Z,4.80
2023-04-08T16:25:34.190Z,4.80
2023-04-08T16:28:02.030Z,4.70
2023-04-08T16:30:29.965Z,4.60
2023-04-08T16:32:59.288Z,4.70
2023-04-08T16:35:27.334Z,4.70
2023-04-08T16:37:55.522Z,4.60
2023-04-08T16:40:23.391Z,4.60
2023-04-08T16:42:51.248Z,4.60
2023-04-08T16:45:19.358Z,4.60
2023-04-08T16:47:47.300Z,4.50
2023-04-08T16:50:16.657Z,4.60
2023-04-08T16:52:49.377Z,4.70
2023-04-08T16:55:17.571Z,4.50
2023-04-08T16:57:45.784Z,4.50
2023-04-08T17:00:16.008Z,4.50
2023-04-08T17:02:45.082Z,4.40
2023-04-08T17:05:13.317Z,4.40
2023-04-08T17:07:42.708Z,4.30
2023-04-08T17:10:11.379Z,4.40
2023-04-08T17:12:39.250Z,4.30
2023-04-08T17:15:08.176Z,4.30
2023-04-08T17:17:36.063Z,4.30
2023-04-08T17:20:04.061Z,4.40
2023-04-08T17:22:31.947Z,4.40
2023-04-08T17:25:01.244Z,4.50
2023-04-08T17:27:29.103Z,4.40
2023-04-08T17:29:57.878Z,4.30
2023-04-08T17:32:25.898Z,4.40
2023-04-08T17:34:53.928Z,4.40
2023-04-08T17:37:21.919Z,4.30
2023-04-08T17:39:49.764Z,4.30
2023-04-08T17:42:22.338Z,4.40
2023-04-08T17:44:50.279Z,4.30
2023-04-08T17:47:18.218Z,4.30
2023-04-08T17:49:46.370Z,4.40
2023-04-08T17:52:14.436Z,4.20
2023-04-08T17:54:42.485Z,4.20
2023-04-08T17:57:10.334Z,4.30
2023-04-08T17:59:39.519Z,4.40
2023-04-08T18:02:07.621Z,4.50
2023-04-08T18:04:35.576Z,4.40
2023-04-08T18:07:05.355Z,4.30
2023-04-08T18:09:33.307Z,4.30
2023-04-08T18:12:01.138Z,4.30
2023-04-08T18:14:29.552Z,4.40
2023-04-08T18:16:58.838Z,4.20
2023-04-08T18:19:26.980Z,4.20
2023-04-08T18:21:55.289Z,4.40
2023-04-08T18:24:23.258Z,4.40
2023-04-08T18:27:01.557Z,4.40
2023-04-08T18:29:32.100Z,4.40
2023-04-08T18:32:01.326Z,4.40
2023-04-08T18:34:29.191Z,4.40
2023-04-08T18:36:57.814Z,4.40
2023-04-08T18:39:26.133Z,4.30
2023-04-08T18:41:54.017Z,4.10
2023-04-08T18:44:23.297Z,4.20
2023-04-08T18:46:51.301Z,4.30
2023-04-08T18:49:20.851Z,4.40
2023-04-08T18:52:01.207Z,4.30
2023-04-08T18:54:30.078Z,4.10
2023-04-08T18:56:57.979Z,4.00
2023-04-08T18:59:27.765Z,4.10
2023-04-08T19:01:55.777Z,4.00
2023-04-08T19:04:25.240Z,4.10
2023-04-08T19:06:53.352Z,4.10
2023-04-08T19:09:21.231Z,3.90
2023-04-08T19:11:49.315Z,4.00
2023-04-08T19:14:17.154Z,4.00
2023-04-08T19:16:45.933Z,3.90
2023-04-08T19:19:13.809Z,3.60
2023-04-08T19:21:42.992Z,3.80
2023-04-08T19:24:10.837Z,3.80
2023-04-08T19:26:38.713Z,3.80
2023-04-08T19:29:06.547Z,3.70
2023-04-08T19:31:34.524Z,3.90
2023-04-08T19:34:02.437Z,4.30
2023-04-08T19:36:30.766Z,4.00
2023-04-08T19:39:01.510Z,4.20
2023-04-08T19:41:29.368Z,4.20
2023-04-08T19:43:57.299Z,4.10
2023-04-08T19:46:25.199Z,4.10
2023-04-08T19:48:53.064Z,3.90
2023-04-08T19:51:22.988Z,3.90
2023-04-08T19:53:51.165Z,4.00
2023-04-08T19:56:21.550Z,3.90
2023-04-08T19:58:49.727Z,3.80
2023-04-08T20:01:18.190Z,3.70
2023-04-08T20:03:50.008Z,3.80
2023-04-08T20:06:18.286Z,3.90
2023-04-08T20:08:46.330Z,4.10
2023-04-08T20:11:14.223Z,4.00
2023-04-08T20:13:43.402Z,4.00
2023-04-08T20:16:11.291Z,4.10
2023-04-08T20:18:39.134Z,3.90
2023-04-08T20:21:08.136Z,3.90
2023-04-08T20:23:36.248Z,3.90
2023-04-08T20:26:04.114Z,3.70
2023-04-08T20:28:31.976Z,3.60
2023-04-08T20:31:01.797Z,3.80
2023-04-08T20:33:29.663Z,3.60
2023-04-08T20:35:57.661Z,3.80
2023-04-08T20:38:25.787Z,3.80
2023-04-08T20:40:53.632Z,3.80
2023-04-08T20:43:21.512Z,3.80
2023-04-08T20:45:49.377Z,3.90
2023-04-08T20:48:18.611Z,3.80
2023-04-08T20:50:46.460Z,3.70
2023-04-08T20:53:14.330Z,3.80
2023-04-08T20:55:42.177Z,3.90
2023-04-08T20:58:10.075Z,3.80
2023-04-08T21:00:37.945Z,3.90
2023-04-08T21:03:06.407Z,3.90
2023-04-08T21:05:38.951Z,3.90
2023-04-08T21:08:07.275Z,3.70
2023-04-08T21:10:35.361Z,3.80
2023-04-08T21:13:03.226Z,3.80
2023-04-08T21:15:31.076Z,4.00
2023-04-08T21:17:58.923Z,4.00
2023-04-08T21:20:26.805Z,4.00
2023-04-08T21:22:56.013Z,3.90
2023-04-08T21:25:24.816Z,3.90
2023-04-08T21:27:52.659Z,3.80
2023-04-08T21:30:21.338Z,3.90
2023-04-08T21:32:49.229Z,4.00
2023-04-08T21:35:17.162Z,3.90
2023-04-08T21:37:44.994Z,3.80
2023-04-08T21:40:14.741Z,3.90
2023-04-08T21:42:42.598Z,3.80
2023-04-08T21:45:11.662Z,3.80
2023-04-08T21:47:39.601Z,3.80
2023-04-08T21:50:08.826Z,3.90
2023-04-08T21:52:37.334Z,3.80
2023-04-08T21:55:06.528Z,3.80
2023-04-08T21:57:35.763Z,3.90
2023-04-08T22:00:08.025Z,4.00
2023-04-08T22:02:40.738Z,3.90
2023-04-08T22:05:09.570Z,3.90
2023-04-08T22:07:37.831Z,3.90
2023-04-08T22:10:06.089Z,3.80
2023-04-08T22:12:35.491Z,3.80
2023-04-08T22:15:03.589Z,3.90
2023-04-08T22:17:31.519Z,3.90
2023-04-08T22:19:59.431Z,3.80
2023-04-08T22:22:27.402Z,4.00
2023-04-08T22:24:55.295Z,3.80
2023-04-08T22:27:23.140Z,3.90
2023-04-08T22:29:52.357Z,4.00
2023-04-08T22:32:20.193Z,4.00
2023-04-08T22:34:48.049Z,4.00
2023-04-08T22:37:15.905Z,3.80
2023-04-08T22:39:43.772Z,3.80
2023-04-08T22:42:11.629Z,3.80
2023-04-08T22:44:39.599Z,4.00
2023-04-08T22:47:08.848Z,3.90
2023-04-08T22:49:36.911Z,3.80
2023-04-08T22:52:04.808Z,3.70
2023-04-08T22:54:32.678Z,3.80
2023-04-08T22:57:01.747Z,3.90
2023-04-08T22:59:29.613Z,3.90
2023-04-08T23:01:57.531Z,3.90
2023-04-08T23:04:26.959Z,4.00
2023-04-08T23:06:54.843Z,4.10
2023-04-08T23:09:24.544Z,4.00
2023-04-08T23:11:52.442Z,3.90
2023-04-08T23:14:20.350Z,3.90
2023-04-08T23:16:48.206Z,4.00
2023-04-08T23:19:16.087Z,4.00
2023-04-08T23:21:45.487Z,3.80
2023-04-08T23:24:13.357Z,3.70
2023-04-08T23:26:41.316Z,3.60
2023-04-08T23:29:09.182Z,3.70
2023-04-08T23:31:37.061Z,3.80
2023-04-08T23:34:04.931Z,4.00
2023-04-08T23:36:32.829Z,4.00
2023-04-08T23:39:02.053Z,3.90
2023-04-08T23:41:29.883Z,4.20
2023-04-08T23:43:57.723Z,4.20
2023-04-08T23:46:25.589Z,3.90
2023-04-08T23:48:53.805Z,3.80
2023-04-08T23:51:21.833Z,3.70
2023-04-08T23:53:49.664Z,3.90
2023-04-08T23:56:18.846Z,3.90
2023-04-08T23:58:46.685Z,3.80
